sensor_id;sensor_type;location;lat;lon;timestamp;temperature;humidity
14783;DHT22;7483;50.498;12.138;2022-07-06T00:01:07;20.30;95.00
14783;DHT22;7483;50.498;12.138;2022-07-06T00:03:35;20.30;95.10
14783;DHT22;7483;50.498;12.138;2022-07-06T00:06:03;20.30;95.20
14783;DHT22;7483;50.498;12.138;2022-07-06T00:08:32;20.30;95.20
14783;DHT22;7483;50.498;12.138;2022-07-06T00:11:01;20.40;95.40
14783;DHT22;7483;50.498;12.138;2022-07-06T00:13:29;20.30;95.50
14783;DHT22;7483;50.498;12.138;2022-07-06T00:15:58;20.20;95.60
14783;DHT22;7483;50.498;12.138;2022-07-06T00:18:25;20.20;95.50
14783;DHT22;7483;50.498;12.138;2022-07-06T00:20:54;20.20;95.60
14783;DHT22;7483;50.498;12.138;2022-07-06T00:23:22;20.20;95.60
14783;DHT22;7483;50.498;12.138;2022-07-06T00:25:50;20.30;95.60
14783;DHT22;7483;50.498;12.138;2022-07-06T00:28:19;20.20;95.40
14783;DHT22;7483;50.498;12.138;2022-07-06T00:30:47;20.00;96.20
14783;DHT22;7483;50.498;12.138;2022-07-06T00:33:16;20.00;96.10
14783;DHT22;7483;50.498;12.138;2022-07-06T00:35:44;20.00;96.30
14783;DHT22;7483;50.498;12.138;2022-07-06T00:38:12;19.90;96.40
14783;DHT22;7483;50.498;12.138;2022-07-06T00:40:40;19.80;96.60
14783;DHT22;7483;50.498;12.138;2022-07-06T00:43:08;19.80;96.70
14783;DHT22;7483;50.498;12.138;2022-07-06T00:45:38;19.90;96.60
14783;DHT22;7483;50.498;12.138;2022-07-06T00:48:06;20.10;96.70
14783;DHT22;7483;50.498;12.138;2022-07-06T00:50:35;20.10;96.60
14783;DHT22;7483;50.498;12.138;2022-07-06T00:53:05;20.00;97.10
14783;DHT22;7483;50.498;12.138;2022-07-06T00:55:35;19.90;97.30
14783;DHT22;7483;50.498;12.138;2022-07-06T00:58:07;19.90;97.60
14783;DHT22;7483;50.498;12.138;2022-07-06T01:00:37;19.70;98.00
14783;DHT22;7483;50.498;12.138;2022-07-06T01:03:11;19.70;98.30
14783;DHT22;7483;50.498;12.138;2022-07-06T01:05:39;19.60;98.50
14783;DHT22;7483;50.498;12.138;2022-07-06T01:08:07;19.70;98.40
14783;DHT22;7483;50.498;12.138;2022-07-06T01:10:35;19.80;98.40
14783;DHT22;7483;50.498;12.138;2022-07-06T01:13:03;19.80;98.70
14783;DHT22;7483;50.498;12.138;2022-07-06T01:15:32;19.60;99.20
14783;DHT22;7483;50.498;12.138;2022-07-06T01:18:02;19.50;99.70
14783;DHT22;7483;50.498;12.138;2022-07-06T01:20:33;19.20;99.90
14783;DHT22;7483;50.498;12.138;2022-07-06T01:23:01;19.10;99.90
14783;DHT22;7483;50.498;12.138;2022-07-06T01:25:29;19.10;99.90
14783;DHT22;7483;50.498;12.138;2022-07-06T01:27:57;19.20;99.90
14783;DHT22;7483;50.498;12.138;2022-07-06T01:30:25;18.90;99.90
14783;DHT22;7483;50.498;12.138;2022-07-06T01:32:53;18.80;99.90
14783;DHT22;7483;50.498;12.138;2022-07-06T01:35:22;18.80;99.90
14783;DHT22;7483;50.498;12.138;2022-07-06T01:37:53;18.90;99.90
14783;DHT22;7483;50.498;12.138;2022-07-06T01:40:21;18.90;99.90
14783;DHT22;7483;50.498;12.138;2022-07-06T01:42:49;18.90;99.90
14783;DHT22;7483;50.498;12.138;2022-07-06T01:45:18;18.70;99.90
14783;DHT22;7483;50.498;12.138;2022-07-06T01:47:47;18.50;99.90
14783;DHT22;7483;50.498;12.138;2022-07-06T01:50:16;18.30;99.90
14783;DHT22;7483;50.498;12.138;2022-07-06T01:52:45;17.90;99.90
14783;DHT22;7483;50.498;12.138;2022-07-06T01:55:15;17.70;99.90
14783;DHT22;7483;50.498;12.138;2022-07-06T01:57:43;17.70;99.90
14783;DHT22;7483;50.498;12.138;2022-07-06T02:00:13;17.70;99.90
14783;DHT22;7483;50.498;12.138;2022-07-06T02:02:46;17.70;99.90
14783;DHT22;7483;50.498;12.138;2022-07-06T02:05:14;17.70;99.90
14783;DHT22;7483;50.498;12.138;2022-07-06T02:07:43;17.90;99.90
14783;DHT22;7483;50.498;12.138;2022-07-06T02:10:12;17.80;99.90
14783;DHT22;7483;50.498;12.138;2022-07-06T02:12:43;17.80;99.90
14783;DHT22;7483;50.498;12.138;2022-07-06T02:15:11;17.60;99.90
14783;DHT22;7483;50.498;12.138;2022-07-06T02:17:39;17.40;99.90
14783;DHT22;7483;50.498;12.138;2022-07-06T02:20:08;17.30;99.90
14783;DHT22;7483;50.498;12.138;2022-07-06T02:22:37;17.20;99.90
14783;DHT22;7483;50.498;12.138;2022-07-06T02:25:07;17.20;99.90
14783;DHT22;7483;50.498;12.138;2022-07-06T02:27:36;17.20;99.90
14783;DHT22;7483;50.498;12.138;2022-07-06T02:30:10;17.20;99.90
14783;DHT22;7483;50.498;12.138;2022-07-06T02:32:38;17.20;99.90
14783;DHT22;7483;50.498;12.138;2022-07-06T02:35:07;17.30;99.90
14783;DHT22;7483;50.498;12.138;2022-07-06T02:37:36;17.40;99.90
14783;DHT22;7483;50.498;12.138;2022-07-06T02:40:05;17.30;99.90
14783;DHT22;7483;50.498;12.138;2022-07-06T02:42:34;17.30;99.90
14783;DHT22;7483;50.498;12.138;2022-07-06T02:45:03;17.20;99.90
14783;DHT22;7483;50.498;12.138;2022-07-06T02:47:34;17.20;99.90
14783;DHT22;7483;50.498;12.138;2022-07-06T02:50:03;17.20;99.90
14783;DHT22;7483;50.498;12.138;2022-07-06T02:52:32;17.10;99.90
14783;DHT22;7483;50.498;12.138;2022-07-06T02:55:07;17.10;99.90
14783;DHT22;7483;50.498;12.138;2022-07-06T02:57:36;17.30;99.90
14783;DHT22;7483;50.498;12.138;2022-07-06T03:00:05;17.20;99.90
14783;DHT22;7483;50.498;12.138;2022-07-06T03:02:37;17.00;99.90
14783;DHT22;7483;50.498;12.138;2022-07-06T03:05:06;16.90;99.90
14783;DHT22;7483;50.498;12.138;2022-07-06T03:07:34;16.70;99.90
14783;DHT22;7483;50.498;12.138;2022-07-06T03:10:03;16.70;99.90
14783;DHT22;7483;50.498;12.138;2022-07-06T03:12:32;16.50;99.90
14783;DHT22;7483;50.498;12.138;2022-07-06T03:15:00;16.30;99.90
14783;DHT22;7483;50.498;12.138;2022-07-06T03:17:31;16.30;99.90
14783;DHT22;7483;50.498;12.138;2022-07-06T03:20:00;16.40;99.90
14783;DHT22;7483;50.498;12.138;2022-07-06T03:22:29;16.40;99.90
14783;DHT22;7483;50.498;12.138;2022-07-06T03:24:58;16.40;99.90
14783;DHT22;7483;50.498;12.138;2022-07-06T03:27:26;16.40;99.90
14783;DHT22;7483;50.498;12.138;2022-07-06T03:29:54;16.50;99.90
14783;DHT22;7483;50.498;12.138;2022-07-06T03:32:22;16.50;99.90
14783;DHT22;7483;50.498;12.138;2022-07-06T03:34:50;16.40;99.90
14783;DHT22;7483;50.498;12.138;2022-07-06T03:37:20;16.30;99.90
14783;DHT22;7483;50.498;12.138;2022-07-06T03:39:48;16.20;99.90
14783;DHT22;7483;50.498;12.138;2022-07-06T03:42:17;16.30;99.90
14783;DHT22;7483;50.498;12.138;2022-07-06T03:44:45;16.40;99.90
14783;DHT22;7483;50.498;12.138;2022-07-06T03:47:13;16.30;99.90
14783;DHT22;7483;50.498;12.138;2022-07-06T03:49:42;16.30;99.90
14783;DHT22;7483;50.498;12.138;2022-07-06T03:52:11;16.30;99.90
14783;DHT22;7483;50.498;12.138;2022-07-06T03:54:46;16.30;99.90
14783;DHT22;7483;50.498;12.138;2022-07-06T03:57:18;16.40;99.90
14783;DHT22;7483;50.498;12.138;2022-07-06T03:59:48;16.30;99.90
14783;DHT22;7483;50.498;12.138;2022-07-06T04:02:16;16.20;99.90
14783;DHT22;7483;50.498;12.138;2022-07-06T04:04:48;16.30;99.90
14783;DHT22;7483;50.498;12.138;2022-07-06T04:07:16;16.30;99.90
14783;DHT22;7483;50.498;12.138;2022-07-06T04:09:46;16.40;99.90
14783;DHT22;7483;50.498;12.138;2022-07-06T04:12:15;16.40;99.90
14783;DHT22;7483;50.498;12.138;2022-07-06T04:14:43;16.60;99.90
14783;DHT22;7483;50.498;12.138;2022-07-06T04:17:12;16.40;99.90
14783;DHT22;7483;50.498;12.138;2022-07-06T04:19:58;16.30;99.90
14783;DHT22;7483;50.498;12.138;2022-07-06T04:22:26;16.30;99.90
14783;DHT22;7483;50.498;12.138;2022-07-06T04:24:55;16.30;99.90
14783;DHT22;7483;50.498;12.138;2022-07-06T04:27:26;16.40;99.90
14783;DHT22;7483;50.498;12.138;2022-07-06T04:29:54;16.60;99.90
14783;DHT22;7483;50.498;12.138;2022-07-06T04:32:22;16.80;99.90
14783;DHT22;7483;50.498;12.138;2022-07-06T04:34:52;16.90;99.90
14783;DHT22;7483;50.498;12.138;2022-07-06T04:37:20;17.00;99.90
14783;DHT22;7483;50.498;12.138;2022-07-06T04:39:48;17.10;99.90
14783;DHT22;7483;50.498;12.138;2022-07-06T04:42:18;17.30;99.90
14783;DHT22;7483;50.498;12.138;2022-07-06T04:44:47;17.30;99.90
14783;DHT22;7483;50.498;12.138;2022-07-06T04:47:15;17.40;99.90
14783;DHT22;7483;50.498;12.138;2022-07-06T04:49:44;17.40;99.90
14783;DHT22;7483;50.498;12.138;2022-07-06T04:52:13;17.50;99.90
14783;DHT22;7483;50.498;12.138;2022-07-06T04:54:42;17.60;99.90
14783;DHT22;7483;50.498;12.138;2022-07-06T04:57:12;17.70;99.90
14783;DHT22;7483;50.498;12.138;2022-07-06T04:59:43;17.60;99.90
14783;DHT22;7483;50.498;12.138;2022-07-06T05:02:11;17.50;99.90
14783;DHT22;7483;50.498;12.138;2022-07-06T05:04:40;17.50;99.90
14783;DHT22;7483;50.498;12.138;2022-07-06T05:07:08;17.60;99.90
14783;DHT22;7483;50.498;12.138;2022-07-06T05:09:37;17.70;99.90
14783;DHT22;7483;50.498;12.138;2022-07-06T05:12:06;17.70;99.90
14783;DHT22;7483;50.498;12.138;2022-07-06T05:14:35;17.70;99.90
14783;DHT22;7483;50.498;12.138;2022-07-06T05:17:06;17.80;99.90
14783;DHT22;7483;50.498;12.138;2022-07-06T05:19:34;17.80;99.90
14783;DHT22;7483;50.498;12.138;2022-07-06T05:22:03;17.90;99.90
14783;DHT22;7483;50.498;12.138;2022-07-06T05:24:32;17.90;99.90
14783;DHT22;7483;50.498;12.138;2022-07-06T05:27:00;17.90;99.90
14783;DHT22;7483;50.498;12.138;2022-07-06T05:29:28;17.90;99.90
14783;DHT22;7483;50.498;12.138;2022-07-06T05:31:56;17.80;99.90
14783;DHT22;7483;50.498;12.138;2022-07-06T05:34:26;17.80;99.90
14783;DHT22;7483;50.498;12.138;2022-07-06T05:36:54;17.90;99.90
14783;DHT22;7483;50.498;12.138;2022-07-06T05:39:27;17.90;99.90
14783;DHT22;7483;50.498;12.138;2022-07-06T05:41:55;17.90;99.90
14783;DHT22;7483;50.498;12.138;2022-07-06T05:44:23;17.90;99.90
14783;DHT22;7483;50.498;12.138;2022-07-06T05:46:52;17.90;99.90
14783;DHT22;7483;50.498;12.138;2022-07-06T05:49:42;17.90;99.90
14783;DHT22;7483;50.498;12.138;2022-07-06T05:52:29;18.00;99.90
14783;DHT22;7483;50.498;12.138;2022-07-06T05:54:57;18.00;99.90
14783;DHT22;7483;50.498;12.138;2022-07-06T05:57:25;18.00;99.90
14783;DHT22;7483;50.498;12.138;2022-07-06T05:59:54;18.10;99.90
14783;DHT22;7483;50.498;12.138;2022-07-06T06:02:22;18.20;99.90
14783;DHT22;7483;50.498;12.138;2022-07-06T06:04:52;18.30;99.90
14783;DHT22;7483;50.498;12.138;2022-07-06T06:07:21;18.50;99.90
14783;DHT22;7483;50.498;12.138;2022-07-06T06:09:49;18.60;99.90
14783;DHT22;7483;50.498;12.138;2022-07-06T06:12:17;18.70;99.90
14783;DHT22;7483;50.498;12.138;2022-07-06T06:14:45;18.80;99.90
14783;DHT22;7483;50.498;12.138;2022-07-06T06:17:13;18.90;99.90
14783;DHT22;7483;50.498;12.138;2022-07-06T06:19:41;18.90;99.90
14783;DHT22;7483;50.498;12.138;2022-07-06T06:22:11;19.00;99.90
14783;DHT22;7483;50.498;12.138;2022-07-06T06:24:39;19.00;99.90
14783;DHT22;7483;50.498;12.138;2022-07-06T06:27:07;19.00;99.90
14783;DHT22;7483;50.498;12.138;2022-07-06T06:29:35;18.80;99.90
14783;DHT22;7483;50.498;12.138;2022-07-06T06:32:03;18.80;99.90
14783;DHT22;7483;50.498;12.138;2022-07-06T06:34:32;18.80;99.90
14783;DHT22;7483;50.498;12.138;2022-07-06T06:37:00;18.70;99.90
14783;DHT22;7483;50.498;12.138;2022-07-06T06:39:29;18.60;99.90
14783;DHT22;7483;50.498;12.138;2022-07-06T06:41:57;18.80;99.90
14783;DHT22;7483;50.498;12.138;2022-07-06T06:44:31;18.90;99.90
14783;DHT22;7483;50.498;12.138;2022-07-06T06:46:59;18.90;99.90
14783;DHT22;7483;50.498;12.138;2022-07-06T06:49:27;19.00;99.90
14783;DHT22;7483;50.498;12.138;2022-07-06T06:51:55;19.10;99.90
14783;DHT22;7483;50.498;12.138;2022-07-06T06:54:44;19.00;99.90
14783;DHT22;7483;50.498;12.138;2022-07-06T06:57:12;19.00;99.90
14783;DHT22;7483;50.498;12.138;2022-07-06T06:59:40;19.10;99.90
14783;DHT22;7483;50.498;12.138;2022-07-06T07:02:08;19.20;99.90
14783;DHT22;7483;50.498;12.138;2022-07-06T07:04:36;19.30;99.90
14783;DHT22;7483;50.498;12.138;2022-07-06T07:07:04;19.40;99.90
14783;DHT22;7483;50.498;12.138;2022-07-06T07:09:32;19.60;99.90
14783;DHT22;7483;50.498;12.138;2022-07-06T07:12:02;19.70;99.90
14783;DHT22;7483;50.498;12.138;2022-07-06T07:14:31;19.70;99.90
14783;DHT22;7483;50.498;12.138;2022-07-06T07:16:59;19.80;99.90
14783;DHT22;7483;50.498;12.138;2022-07-06T07:19:27;19.80;99.90
14783;DHT22;7483;50.498;12.138;2022-07-06T07:21:55;19.90;99.90
14783;DHT22;7483;50.498;12.138;2022-07-06T07:24:23;19.90;99.90
14783;DHT22;7483;50.498;12.138;2022-07-06T07:26:51;19.80;99.90
14783;DHT22;7483;50.498;12.138;2022-07-06T07:29:20;19.90;99.90
14783;DHT22;7483;50.498;12.138;2022-07-06T07:31:48;20.10;99.90
14783;DHT22;7483;50.498;12.138;2022-07-06T07:34:16;20.30;99.90
14783;DHT22;7483;50.498;12.138;2022-07-06T07:36:44;20.50;99.90
14783;DHT22;7483;50.498;12.138;2022-07-06T07:39:12;20.60;99.90
14783;DHT22;7483;50.498;12.138;2022-07-06T07:41:40;20.70;99.90
14783;DHT22;7483;50.498;12.138;2022-07-06T07:44:08;20.80;99.90
14783;DHT22;7483;50.498;12.138;2022-07-06T07:46:38;20.90;99.90
14783;DHT22;7483;50.498;12.138;2022-07-06T07:49:06;21.10;99.90
14783;DHT22;7483;50.498;12.138;2022-07-06T07:51:35;21.20;99.90
14783;DHT22;7483;50.498;12.138;2022-07-06T07:54:03;21.20;99.90
14783;DHT22;7483;50.498;12.138;2022-07-06T07:56:31;21.10;99.90
14783;DHT22;7483;50.498;12.138;2022-07-06T07:58:59;20.90;99.90
14783;DHT22;7483;50.498;12.138;2022-07-06T08:01:30;21.00;99.90
14783;DHT22;7483;50.498;12.138;2022-07-06T08:03:59;21.20;99.90
14783;DHT22;7483;50.498;12.138;2022-07-06T08:06:28;21.30;99.90
14783;DHT22;7483;50.498;12.138;2022-07-06T08:08:56;21.30;99.90
14783;DHT22;7483;50.498;12.138;2022-07-06T08:11:24;21.50;99.90
14783;DHT22;7483;50.498;12.138;2022-07-06T08:13:52;21.80;99.90
14783;DHT22;7483;50.498;12.138;2022-07-06T08:16:20;22.10;99.90
14783;DHT22;7483;50.498;12.138;2022-07-06T08:18:48;21.90;99.90
14783;DHT22;7483;50.498;12.138;2022-07-06T08:21:18;22.00;99.90
14783;DHT22;7483;50.498;12.138;2022-07-06T08:23:53;22.00;99.90
14783;DHT22;7483;50.498;12.138;2022-07-06T08:26:22;21.80;99.90
14783;DHT22;7483;50.498;12.138;2022-07-06T08:28:50;21.90;99.90
14783;DHT22;7483;50.498;12.138;2022-07-06T08:31:19;22.10;99.90
14783;DHT22;7483;50.498;12.138;2022-07-06T08:34:07;21.80;99.90
14783;DHT22;7483;50.498;12.138;2022-07-06T08:36:37;21.70;99.90
14783;DHT22;7483;50.498;12.138;2022-07-06T08:39:05;21.90;99.90
14783;DHT22;7483;50.498;12.138;2022-07-06T08:41:34;22.00;99.90
14783;DHT22;7483;50.498;12.138;2022-07-06T08:44:06;22.20;99.90
14783;DHT22;7483;50.498;12.138;2022-07-06T08:46:37;22.40;99.90
14783;DHT22;7483;50.498;12.138;2022-07-06T08:49:07;22.50;99.90
14783;DHT22;7483;50.498;12.138;2022-07-06T08:51:37;22.70;99.90
14783;DHT22;7483;50.498;12.138;2022-07-06T08:54:06;22.70;99.80
14783;DHT22;7483;50.498;12.138;2022-07-06T08:56:35;22.90;99.80
14783;DHT22;7483;50.498;12.138;2022-07-06T08:59:03;23.20;99.40
14783;DHT22;7483;50.498;12.138;2022-07-06T09:01:32;23.40;98.90
14783;DHT22;7483;50.498;12.138;2022-07-06T09:04:01;23.40;98.90
14783;DHT22;7483;50.498;12.138;2022-07-06T09:06:33;23.10;98.50
14783;DHT22;7483;50.498;12.138;2022-07-06T09:09:06;23.10;98.90
14783;DHT22;7483;50.498;12.138;2022-07-06T09:11:34;23.10;98.90
14783;DHT22;7483;50.498;12.138;2022-07-06T09:14:04;23.00;99.10
14783;DHT22;7483;50.498;12.138;2022-07-06T09:16:32;22.90;99.20
14783;DHT22;7483;50.498;12.138;2022-07-06T09:19:05;23.10;99.10
14783;DHT22;7483;50.498;12.138;2022-07-06T09:21:35;23.30;99.10
14783;DHT22;7483;50.498;12.138;2022-07-06T09:24:08;23.40;98.70
14783;DHT22;7483;50.498;12.138;2022-07-06T09:26:38;23.60;98.40
14783;DHT22;7483;50.498;12.138;2022-07-06T09:29:06;23.60;98.30
14783;DHT22;7483;50.498;12.138;2022-07-06T09:31:34;23.60;98.10
14783;DHT22;7483;50.498;12.138;2022-07-06T09:34:03;23.50;97.80
14783;DHT22;7483;50.498;12.138;2022-07-06T09:36:41;23.00;98.10
14783;DHT22;7483;50.498;12.138;2022-07-06T09:39:20;22.70;98.80
14783;DHT22;7483;50.498;12.138;2022-07-06T09:41:52;22.70;98.60
14783;DHT22;7483;50.498;12.138;2022-07-06T09:44:22;22.80;98.80
14783;DHT22;7483;50.498;12.138;2022-07-06T09:46:52;22.80;98.50
14783;DHT22;7483;50.498;12.138;2022-07-06T09:49:21;22.90;98.50
14783;DHT22;7483;50.498;12.138;2022-07-06T09:51:51;23.10;98.30
14783;DHT22;7483;50.498;12.138;2022-07-06T09:54:22;23.30;98.00
14783;DHT22;7483;50.498;12.138;2022-07-06T09:56:52;23.50;97.40
14783;DHT22;7483;50.498;12.138;2022-07-06T09:59:23;23.90;96.50
14783;DHT22;7483;50.498;12.138;2022-07-06T10:01:54;23.80;95.90
14783;DHT22;7483;50.498;12.138;2022-07-06T10:04:24;23.70;96.10
14783;DHT22;7483;50.498;12.138;2022-07-06T10:06:54;23.50;96.40
14783;DHT22;7483;50.498;12.138;2022-07-06T10:09:26;23.50;96.80
14783;DHT22;7483;50.498;12.138;2022-07-06T10:11:59;23.70;96.50
14783;DHT22;7483;50.498;12.138;2022-07-06T10:14:30;23.70;96.40
14783;DHT22;7483;50.498;12.138;2022-07-06T10:17:01;23.90;96.40
14783;DHT22;7483;50.498;12.138;2022-07-06T10:19:32;24.30;96.00
14783;DHT22;7483;50.498;12.138;2022-07-06T10:22:03;24.50;96.20
14783;DHT22;7483;50.498;12.138;2022-07-06T10:24:32;24.60;96.30
14783;DHT22;7483;50.498;12.138;2022-07-06T10:27:06;24.50;96.30
14783;DHT22;7483;50.498;12.138;2022-07-06T10:29:36;24.40;96.50
14783;DHT22;7483;50.498;12.138;2022-07-06T10:32:05;24.20;96.50
14783;DHT22;7483;50.498;12.138;2022-07-06T10:34:35;24.30;96.50
14783;DHT22;7483;50.498;12.138;2022-07-06T10:37:03;24.30;96.20
14783;DHT22;7483;50.498;12.138;2022-07-06T10:39:34;24.50;96.10
14783;DHT22;7483;50.498;12.138;2022-07-06T10:42:39;24.70;95.90
14783;DHT22;7483;50.498;12.138;2022-07-06T10:45:13;24.90;95.30
14783;DHT22;7483;50.498;12.138;2022-07-06T10:47:42;25.00;94.50
14783;DHT22;7483;50.498;12.138;2022-07-06T10:50:11;25.20;94.80
14783;DHT22;7483;50.498;12.138;2022-07-06T10:52:51;25.30;94.40
14783;DHT22;7483;50.498;12.138;2022-07-06T10:55:32;25.30;94.20
14783;DHT22;7483;50.498;12.138;2022-07-06T10:58:03;25.10;94.20
14783;DHT22;7483;50.498;12.138;2022-07-06T11:00:50;24.90;94.40
14783;DHT22;7483;50.498;12.138;2022-07-06T11:03:33;24.70;94.50
14783;DHT22;7483;50.498;12.138;2022-07-06T11:06:06;24.60;94.60
14783;DHT22;7483;50.498;12.138;2022-07-06T11:08:49;24.40;94.60
14783;DHT22;7483;50.498;12.138;2022-07-06T11:11:22;24.20;94.70
14783;DHT22;7483;50.498;12.138;2022-07-06T11:13:57;24.00;95.00
14783;DHT22;7483;50.498;12.138;2022-07-06T11:16:29;24.00;95.00
14783;DHT22;7483;50.498;12.138;2022-07-06T11:19:06;24.00;95.20
14783;DHT22;7483;50.498;12.138;2022-07-06T11:21:43;24.30;94.80
14783;DHT22;7483;50.498;12.138;2022-07-06T11:24:14;24.40;94.70
14783;DHT22;7483;50.498;12.138;2022-07-06T11:26:47;24.20;94.70
14783;DHT22;7483;50.498;12.138;2022-07-06T11:29:17;24.60;94.60
14783;DHT22;7483;50.498;12.138;2022-07-06T11:31:49;24.50;94.20
14783;DHT22;7483;50.498;12.138;2022-07-06T11:34:22;24.80;94.10
14783;DHT22;7483;50.498;12.138;2022-07-06T11:36:55;25.00;93.80
14783;DHT22;7483;50.498;12.138;2022-07-06T11:39:26;25.50;93.50
14783;DHT22;7483;50.498;12.138;2022-07-06T11:41:56;25.80;92.90
14783;DHT22;7483;50.498;12.138;2022-07-06T11:44:25;25.20;92.00
14783;DHT22;7483;50.498;12.138;2022-07-06T11:46:53;25.00;92.40
14783;DHT22;7483;50.498;12.138;2022-07-06T11:49:23;24.70;92.70
14783;DHT22;7483;50.498;12.138;2022-07-06T11:51:51;24.30;93.20
14783;DHT22;7483;50.498;12.138;2022-07-06T11:54:20;24.50;93.10
14783;DHT22;7483;50.498;12.138;2022-07-06T11:56:50;24.70;92.80
14783;DHT22;7483;50.498;12.138;2022-07-06T11:59:25;24.50;92.40
14783;DHT22;7483;50.498;12.138;2022-07-06T12:01:58;24.40;92.50
14783;DHT22;7483;50.498;12.138;2022-07-06T12:04:27;24.50;92.70
14783;DHT22;7483;50.498;12.138;2022-07-06T12:06:59;24.40;92.30
14783;DHT22;7483;50.498;12.138;2022-07-06T12:09:30;24.10;92.20
14783;DHT22;7483;50.498;12.138;2022-07-06T12:11:59;24.30;92.00
14783;DHT22;7483;50.498;12.138;2022-07-06T12:14:31;24.40;92.10
14783;DHT22;7483;50.498;12.138;2022-07-06T12:17:03;24.40;91.80
14783;DHT22;7483;50.498;12.138;2022-07-06T12:19:33;24.30;91.30
14783;DHT22;7483;50.498;12.138;2022-07-06T12:22:02;24.80;91.20
14783;DHT22;7483;50.498;12.138;2022-07-06T12:24:32;24.90;91.80
14783;DHT22;7483;50.498;12.138;2022-07-06T12:27:10;25.20;91.60
14783;DHT22;7483;50.498;12.138;2022-07-06T12:29:41;25.20;91.50
14783;DHT22;7483;50.498;12.138;2022-07-06T12:32:14;25.20;91.50
14783;DHT22;7483;50.498;12.138;2022-07-06T12:34:43;25.30;91.70
14783;DHT22;7483;50.498;12.138;2022-07-06T12:37:12;25.30;91.50
14783;DHT22;7483;50.498;12.138;2022-07-06T12:39:42;25.30;91.30
14783;DHT22;7483;50.498;12.138;2022-07-06T12:42:14;25.30;91.30
14783;DHT22;7483;50.498;12.138;2022-07-06T12:44:49;25.50;90.70
14783;DHT22;7483;50.498;12.138;2022-07-06T12:47:19;25.70;90.30
14783;DHT22;7483;50.498;12.138;2022-07-06T12:50:05;25.80;90.30
14783;DHT22;7483;50.498;12.138;2022-07-06T12:52:36;25.80;90.30
14783;DHT22;7483;50.498;12.138;2022-07-06T12:55:06;25.90;89.90
14783;DHT22;7483;50.498;12.138;2022-07-06T12:57:44;25.80;90.00
14783;DHT22;7483;50.498;12.138;2022-07-06T13:00:15;25.70;89.80
14783;DHT22;7483;50.498;12.138;2022-07-06T13:02:45;25.30;90.20
14783;DHT22;7483;50.498;12.138;2022-07-06T13:05:34;25.60;90.20
14783;DHT22;7483;50.498;12.138;2022-07-06T13:08:05;25.50;89.90
14783;DHT22;7483;50.498;12.138;2022-07-06T13:10:33;25.30;90.10
14783;DHT22;7483;50.498;12.138;2022-07-06T13:13:02;25.50;90.10
14783;DHT22;7483;50.498;12.138;2022-07-06T13:15:32;25.40;89.60
14783;DHT22;7483;50.498;12.138;2022-07-06T13:18:00;25.60;89.70
14783;DHT22;7483;50.498;12.138;2022-07-06T13:20:28;25.80;88.50
14783;DHT22;7483;50.498;12.138;2022-07-06T13:22:56;25.80;88.60
14783;DHT22;7483;50.498;12.138;2022-07-06T13:25:24;26.00;89.20
14783;DHT22;7483;50.498;12.138;2022-07-06T13:27:52;26.10;88.40
14783;DHT22;7483;50.498;12.138;2022-07-06T13:30:20;26.00;88.20
14783;DHT22;7483;50.498;12.138;2022-07-06T13:32:49;26.10;88.20
14783;DHT22;7483;50.498;12.138;2022-07-06T13:35:18;26.00;88.10
14783;DHT22;7483;50.498;12.138;2022-07-06T13:37:46;26.20;87.70
14783;DHT22;7483;50.498;12.138;2022-07-06T13:40:15;25.70;88.10
14783;DHT22;7483;50.498;12.138;2022-07-06T13:42:43;26.00;87.90
14783;DHT22;7483;50.498;12.138;2022-07-06T13:45:12;25.90;86.60
14783;DHT22;7483;50.498;12.138;2022-07-06T13:47:40;25.70;86.80
14783;DHT22;7483;50.498;12.138;2022-07-06T13:50:09;25.70;87.40
14783;DHT22;7483;50.498;12.138;2022-07-06T13:52:37;25.80;85.90
14783;DHT22;7483;50.498;12.138;2022-07-06T13:55:07;25.80;85.90
14783;DHT22;7483;50.498;12.138;2022-07-06T13:57:36;25.70;86.30
14783;DHT22;7483;50.498;12.138;2022-07-06T14:00:06;25.70;87.00
14783;DHT22;7483;50.498;12.138;2022-07-06T14:02:34;25.70;87.50
14783;DHT22;7483;50.498;12.138;2022-07-06T14:05:03;25.60;87.40
14783;DHT22;7483;50.498;12.138;2022-07-06T14:07:33;25.60;86.90
14783;DHT22;7483;50.498;12.138;2022-07-06T14:10:01;25.50;86.60
14783;DHT22;7483;50.498;12.138;2022-07-06T14:12:29;25.40;86.20
14783;DHT22;7483;50.498;12.138;2022-07-06T14:14:57;25.40;86.80
14783;DHT22;7483;50.498;12.138;2022-07-06T14:17:26;25.40;86.20
14783;DHT22;7483;50.498;12.138;2022-07-06T14:19:54;25.40;86.30
14783;DHT22;7483;50.498;12.138;2022-07-06T14:22:22;25.50;86.20
14783;DHT22;7483;50.498;12.138;2022-07-06T14:24:51;25.60;86.10
14783;DHT22;7483;50.498;12.138;2022-07-06T14:27:19;25.60;85.60
14783;DHT22;7483;50.498;12.138;2022-07-06T14:29:47;25.60;85.30
14783;DHT22;7483;50.498;12.138;2022-07-06T14:32:15;25.50;85.20
14783;DHT22;7483;50.498;12.138;2022-07-06T14:34:43;25.30;85.10
14783;DHT22;7483;50.498;12.138;2022-07-06T14:37:11;25.20;85.70
14783;DHT22;7483;50.498;12.138;2022-07-06T14:39:46;25.10;86.00
14783;DHT22;7483;50.498;12.138;2022-07-06T14:42:16;25.00;86.10
14783;DHT22;7483;50.498;12.138;2022-07-06T14:44:44;24.80;85.90
14783;DHT22;7483;50.498;12.138;2022-07-06T14:47:12;24.80;85.90
14783;DHT22;7483;50.498;12.138;2022-07-06T14:49:40;24.80;85.70
14783;DHT22;7483;50.498;12.138;2022-07-06T14:52:08;24.80;84.80
14783;DHT22;7483;50.498;12.138;2022-07-06T14:54:36;24.80;85.60
14783;DHT22;7483;50.498;12.138;2022-07-06T14:57:05;25.00;85.20
14783;DHT22;7483;50.498;12.138;2022-07-06T14:59:36;25.00;85.00
14783;DHT22;7483;50.498;12.138;2022-07-06T15:02:04;25.10;84.20
14783;DHT22;7483;50.498;12.138;2022-07-06T15:04:32;25.30;83.40
14783;DHT22;7483;50.498;12.138;2022-07-06T15:07:00;25.30;82.90
14783;DHT22;7483;50.498;12.138;2022-07-06T15:09:29;25.20;83.10
14783;DHT22;7483;50.498;12.138;2022-07-06T15:11:57;25.10;83.70
14783;DHT22;7483;50.498;12.138;2022-07-06T15:14:25;25.00;83.40
14783;DHT22;7483;50.498;12.138;2022-07-06T15:16:54;25.00;83.90
14783;DHT22;7483;50.498;12.138;2022-07-06T15:19:23;24.80;84.10
14783;DHT22;7483;50.498;12.138;2022-07-06T15:21:51;24.80;84.00
14783;DHT22;7483;50.498;12.138;2022-07-06T15:24:19;24.70;84.00
14783;DHT22;7483;50.498;12.138;2022-07-06T15:26:47;24.60;84.10
14783;DHT22;7483;50.498;12.138;2022-07-06T15:29:15;24.50;84.50
14783;DHT22;7483;50.498;12.138;2022-07-06T15:31:43;24.50;84.10
14783;DHT22;7483;50.498;12.138;2022-07-06T15:34:12;24.50;84.00
14783;DHT22;7483;50.498;12.138;2022-07-06T15:36:40;24.40;84.10
14783;DHT22;7483;50.498;12.138;2022-07-06T15:39:08;24.40;83.90
14783;DHT22;7483;50.498;12.138;2022-07-06T15:41:36;24.50;83.60
14783;DHT22;7483;50.498;12.138;2022-07-06T15:44:04;24.50;84.00
14783;DHT22;7483;50.498;12.138;2022-07-06T15:46:32;24.60;83.90